sensor_id;sensor_type;location;lat;lon;timestamp;pressure;altitude;pressure_sealevel;temperature;humidity
7337;BME280;54510;42.016;23.098;2023-03-15T00:00:54;-21447.47;;;11.38;54.74
7337;BME280;54510;42.016;23.098;2023-03-15T00:03:20;-21447.63;;;11.38;54.68
7337;BME280;54510;42.016;23.098;2023-03-15T00:05:46;-21454.84;;;11.65;53.84
7337;BME280;54510;42.016;23.098;2023-03-15T00:08:12;-21452.75;;;11.57;53.83
7337;BME280;54510;42.016;23.098;2023-03-15T00:10:41;-21447.47;;;11.38;54.36
7337;BME280;54510;42.016;23.098;2023-03-15T00:13:06;-21449.28;;;11.44;54.36
7337;BME280;54510;42.016;23.098;2023-03-15T00:15:32;-21446.78;;;11.35;54.54
7337;BME280;54510;42.016;23.098;2023-03-15T00:17:57;-21443.59;;;11.24;54.81
7337;BME280;54510;42.016;23.098;2023-03-15T00:20:22;-21443.59;;;11.24;54.89
7337;BME280;54510;42.016;23.098;2023-03-15T00:22:47;-21444.84;;;11.28;55.03
7337;BME280;54510;42.016;23.098;2023-03-15T00:25:13;-21444.56;;;11.27;54.81
7337;BME280;54510;42.016;23.098;2023-03-15T00:27:38;-21444.56;;;11.27;54.66
7337;BME280;54510;42.016;23.098;2023-03-15T00:30:03;-21445.41;;;11.30;54.60
7337;BME280;54510;42.016;23.098;2023-03-15T00:32:29;-21448.31;;;11.41;54.23
7337;BME280;54510;42.016;23.098;2023-03-15T00:34:55;-21444.28;;;11.26;54.71
7337;BME280;54510;42.016;23.098;2023-03-15T00:37:21;-21447.34;;;11.37;54.58
7337;BME280;54510;42.016;23.098;2023-03-15T00:39:49;-21449.56;;;11.45;54.03
7337;BME280;54510;42.016;23.098;2023-03-15T00:42:15;-21450.25;;;11.48;54.05
7337;BME280;54510;42.016;23.098;2023-03-15T00:44:41;-21447.91;;;11.39;54.38
7337;BME280;54510;42.016;23.098;2023-03-15T00:47:08;-21445.41;;;11.30;55.35
7337;BME280;54510;42.016;23.098;2023-03-15T00:49:33;-21447.47;;;11.38;54.87
7337;BME280;54510;42.016;23.098;2023-03-15T00:51:58;-21449.00;;;11.43;54.75
7337;BME280;54510;42.016;23.098;2023-03-15T00:54:23;-21448.31;;;11.41;54.79
7337;BME280;54510;42.016;23.098;2023-03-15T00:56:49;-21447.19;;;11.37;55.39
7337;BME280;54510;42.016;23.098;2023-03-15T00:59:14;-21445.97;;;11.32;55.56
7337;BME280;54510;42.016;23.098;2023-03-15T01:01:39;-21448.88;;;11.43;55.39
7337;BME280;54510;42.016;23.098;2023-03-15T01:04:08;-21448.88;;;11.43;55.31
7337;BME280;54510;42.016;23.098;2023-03-15T01:06:36;-21448.03;;;11.40;55.15
7337;BME280;54510;42.016;23.098;2023-03-15T01:09:01;-21445.97;;;11.32;55.56
7337;BME280;54510;42.016;23.098;2023-03-15T01:11:27;-21446.22;;;11.33;56.00
7337;BME280;54510;42.016;23.098;2023-03-15T01:13:53;-21445.97;;;11.32;55.96
7337;BME280;54510;42.016;23.098;2023-03-15T01:16:18;-21449.69;;;11.46;55.64
7337;BME280;54510;42.016;23.098;2023-03-15T01:18:44;-21444.00;;;11.25;56.37
7337;BME280;54510;42.016;23.098;2023-03-15T01:21:10;-21443.19;;;11.22;56.77
7337;BME280;54510;42.016;23.098;2023-03-15T01:23:36;-21444.97;;;11.29;56.43
7337;BME280;54510;42.016;23.098;2023-03-15T01:26:02;-21442.22;;;11.19;56.69
7337;BME280;54510;42.016;23.098;2023-03-15T01:28:28;-21435.41;;;10.94;56.64
7337;BME280;54510;42.016;23.098;2023-03-15T01:30:54;-21436.94;;;10.99;56.66
7337;BME280;54510;42.016;23.098;2023-03-15T01:33:19;-21439.03;;;11.07;56.42
7337;BME280;54510;42.016;23.098;2023-03-15T01:35:45;-21436.66;;;10.98;57.25
7337;BME280;54510;42.016;23.098;2023-03-15T01:38:10;-21434.59;;;10.91;57.18
7337;BME280;54510;42.016;23.098;2023-03-15T01:40:43;-21433.19;;;10.86;57.20
7337;BME280;54510;42.016;23.098;2023-03-15T01:48:17;-21432.34;;;10.83;57.70
7337;BME280;54510;42.016;23.098;2023-03-15T01:50:42;-21425.16;;;10.56;58.08
7337;BME280;54510;42.016;23.098;2023-03-15T01:53:08;-21438.88;;;11.06;56.52
7337;BME280;54510;42.016;23.098;2023-03-15T01:55:33;-21435.97;;;10.96;57.11
7337;BME280;54510;42.016;23.098;2023-03-15T01:57:59;-21431.38;;;10.79;57.20
7337;BME280;54510;42.016;23.098;2023-03-15T02:00:25;-21430.84;;;10.77;57.31
7337;BME280;54510;42.016;23.098;2023-03-15T02:02:54;-21430.97;;;10.78;56.98
7337;BME280;54510;42.016;23.098;2023-03-15T02:05:26;-21427.91;;;10.66;57.10
7337;BME280;54510;42.016;23.098;2023-03-15T02:07:53;-21422.09;;;10.45;57.20
7337;BME280;54510;42.016;23.098;2023-03-15T02:10:33;-21419.03;;;10.34;57.74
7337;BME280;54510;42.016;23.098;2023-03-15T02:12:59;-21420.00;;;10.38;58.09
7337;BME280;54510;42.016;23.098;2023-03-15T02:15:26;-21425.16;;;10.56;57.40
7337;BME280;54510;42.016;23.098;2023-03-15T02:17:51;-21431.53;;;10.80;56.91
7337;BME280;54510;42.016;23.098;2023-03-15T02:23:01;-21427.34;;;10.64;57.10
7337;BME280;54510;42.016;23.098;2023-03-15T02:25:36;-21424.31;;;10.53;57.14
7337;BME280;54510;42.016;23.098;2023-03-15T02:28:04;-21426.38;;;10.61;57.33
7337;BME280;54510;42.016;23.098;2023-03-15T02:30:30;-21425.16;;;10.56;57.48
7337;BME280;54510;42.016;23.098;2023-03-15T02:32:56;-21431.25;;;10.79;57.10
7337;BME280;54510;42.016;23.098;2023-03-15T02:35:26;-21434.16;;;10.89;56.65
7337;BME280;54510;42.016;23.098;2023-03-15T02:37:51;-21435.13;;;10.93;56.42
7337;BME280;54510;42.016;23.098;2023-03-15T02:40:18;-21434.03;;;10.89;56.63
7337;BME280;54510;42.016;23.098;2023-03-15T02:42:44;-21419.59;;;10.36;57.67
7337;BME280;54510;42.016;23.098;2023-03-15T02:45:10;-21414.16;;;10.16;57.94
7337;BME280;54510;42.016;23.098;2023-03-15T02:47:35;-21417.50;;;10.28;58.01
7337;BME280;54510;42.016;23.098;2023-03-15T02:50:02;-21423.19;;;10.49;57.61
7337;BME280;54510;42.016;23.098;2023-03-15T02:52:27;-21424.72;;;10.55;57.52
7337;BME280;54510;42.016;23.098;2023-03-15T02:54:52;-21411.66;;;10.07;59.26
7337;BME280;54510;42.016;23.098;2023-03-15T02:57:18;-21423.19;;;10.49;58.28
7337;BME280;54510;42.016;23.098;2023-03-15T02:59:44;-21429.72;;;10.73;57.41
7337;BME280;54510;42.016;23.098;2023-03-15T03:02:10;-21431.09;;;10.78;56.60
7337;BME280;54510;42.016;23.098;2023-03-15T03:04:36;-21428.75;;;10.69;56.97
7337;BME280;54510;42.016;23.098;2023-03-15T03:07:01;-21424.16;;;10.53;57.66
7337;BME280;54510;42.016;23.098;2023-03-15T03:09:27;-21426.13;;;10.60;57.43
7337;BME280;54510;42.016;23.098;2023-03-15T03:11:52;-21427.09;;;10.63;57.46
7337;BME280;54510;42.016;23.098;2023-03-15T03:14:17;-21422.09;;;10.45;58.18
7337;BME280;54510;42.016;23.098;2023-03-15T03:16:42;-21423.75;;;10.51;57.69
7337;BME280;54510;42.016;23.098;2023-03-15T03:19:09;-21423.47;;;10.50;57.72
7337;BME280;54510;42.016;23.098;2023-03-15T03:21:36;-21421.94;;;10.45;57.83
7337;BME280;54510;42.016;23.098;2023-03-15T03:24:01;-21416.81;;;10.26;58.76
7337;BME280;54510;42.016;23.098;2023-03-15T03:26:27;-21417.78;;;10.29;59.04
7337;BME280;54510;42.016;23.098;2023-03-15T03:28:52;-21418.47;;;10.32;58.61
7337;BME280;54510;42.016;23.098;2023-03-15T03:31:19;-21415.69;;;10.22;57.90
7337;BME280;54510;42.016;23.098;2023-03-15T03:33:45;-21409.88;;;10.01;58.63
7337;BME280;54510;42.016;23.098;2023-03-15T03:36:10;-21410.13;;;10.02;58.34
7337;BME280;54510;42.016;23.098;2023-03-15T03:38:38;-21416.53;;;10.25;57.78
7337;BME280;54510;42.016;23.098;2023-03-15T03:41:03;-21416.13;;;10.23;57.07
7337;BME280;54510;42.016;23.098;2023-03-15T03:43:29;-21410.28;;;10.02;57.74
7337;BME280;54510;42.016;23.098;2023-03-15T03:45:54;-21413.47;;;10.14;57.58
7337;BME280;54510;42.016;23.098;2023-03-15T03:48:19;-21411.81;;;10.08;57.47
7337;BME280;54510;42.016;23.098;2023-03-15T03:50:44;-21413.47;;;10.14;57.32
7337;BME280;54510;42.016;23.098;2023-03-15T03:53:10;-21414.31;;;10.17;57.11
7337;BME280;54510;42.016;23.098;2023-03-15T03:55:36;-21414.59;;;10.18;56.98
7337;BME280;54510;42.016;23.098;2023-03-15T03:58:02;-21417.38;;;10.28;56.97
7337;BME280;54510;42.016;23.098;2023-03-15T04:00:27;-21415.97;;;10.23;57.00
7337;BME280;54510;42.016;23.098;2023-03-15T04:02:52;-21410.41;;;10.03;57.51
7337;BME280;54510;42.016;23.098;2023-03-15T04:05:18;-21408.19;;;9.95;58.07
7337;BME280;54510;42.016;23.098;2023-03-15T04:07:43;-21412.50;;;10.10;57.54
7337;BME280;54510;42.016;23.098;2023-03-15T04:10:09;-21415.16;;;10.20;57.25
7337;BME280;54510;42.016;23.098;2023-03-15T04:12:39;-21414.31;;;10.17;57.54
7337;BME280;54510;42.016;23.098;2023-03-15T04:15:04;-21411.94;;;10.08;57.99
7337;BME280;54510;42.016;23.098;2023-03-15T04:17:29;-21413.19;;;10.13;58.03
7337;BME280;54510;42.016;23.098;2023-03-15T04:19:55;-21414.31;;;10.17;57.59
7337;BME280;54510;42.016;23.098;2023-03-15T04:22:20;-21411.66;;;10.07;58.21
7337;BME280;54510;42.016;23.098;2023-03-15T04:24:45;-21406.53;;;9.88;58.94
7337;BME280;54510;42.016;23.098;2023-03-15T04:27:14;-21398.59;;;9.60;59.42
7337;BME280;54510;42.016;23.098;2023-03-15T04:29:40;-21400.56;;;9.67;59.32
7337;BME280;54510;42.016;23.098;2023-03-15T04:32:06;-21402.09;;;9.72;59.34
7337;BME280;54510;42.016;23.098;2023-03-15T04:34:31;-21407.50;;;9.92;58.72
7337;BME280;54510;42.016;23.098;2023-03-15T04:36:57;-21409.59;;;10.00;58.13
7337;BME280;54510;42.016;23.098;2023-03-15T04:39:22;-21412.09;;;10.09;57.99
7337;BME280;54510;42.016;23.098;2023-03-15T04:41:47;-21411.38;;;10.06;57.73
7337;BME280;54510;42.016;23.098;2023-03-15T04:44:13;-21410.84;;;10.04;58.10
7337;BME280;54510;42.016;23.098;2023-03-15T04:46:42;-21415.69;;;10.22;57.99
7337;BME280;54510;42.016;23.098;2023-03-15T04:49:07;-21419.03;;;10.34;57.94
7337;BME280;54510;42.016;23.098;2023-03-15T04:51:33;-21413.34;;;10.13;58.03
7337;BME280;54510;42.016;23.098;2023-03-15T04:53:59;-21411.53;;;10.07;58.08
7337;BME280;54510;42.016;23.098;2023-03-15T04:56:24;-21404.88;;;9.82;58.29
7337;BME280;54510;42.016;23.098;2023-03-15T04:58:49;-21407.63;;;9.93;58.75
7337;BME280;54510;42.016;23.098;2023-03-15T05:01:14;-21417.78;;;10.29;58.42
7337;BME280;54510;42.016;23.098;2023-03-15T05:03:40;-21420.00;;;10.38;57.88
7337;BME280;54510;42.016;23.098;2023-03-15T05:06:05;-21418.47;;;10.32;58.21
7337;BME280;54510;42.016;23.098;2023-03-15T05:08:35;-21425.41;;;10.57;57.41
7337;BME280;54510;42.016;23.098;2023-03-15T05:11:01;-21420.69;;;10.40;58.24
7337;BME280;54510;42.016;23.098;2023-03-15T05:13:26;-21417.94;;;10.30;58.50
7337;BME280;54510;42.016;23.098;2023-03-15T05:15:51;-21416.41;;;10.24;58.88
7337;BME280;54510;42.016;23.098;2023-03-15T05:18:17;-21422.66;;;10.47;58.43
7337;BME280;54510;42.016;23.098;2023-03-15T05:20:42;-21427.78;;;10.66;57.81
7337;BME280;54510;42.016;23.098;2023-03-15T05:23:07;-21429.84;;;10.74;56.27
7337;BME280;54510;42.016;23.098;2023-03-15T05:25:32;-21423.88;;;10.52;56.10
7337;BME280;54510;42.016;23.098;2023-03-15T05:27:58;-21430.13;;;10.75;55.34
7337;BME280;54510;42.016;23.098;2023-03-15T05:30:23;-21430.41;;;10.76;54.66
7337;BME280;54510;42.016;23.098;2023-03-15T05:32:48;-21435.56;;;10.94;54.42
7337;BME280;54510;42.016;23.098;2023-03-15T05:35:13;-21434.44;;;10.90;54.25
7337;BME280;54510;42.016;23.098;2023-03-15T05:37:39;-21440.13;;;11.11;53.71
7337;BME280;54510;42.016;23.098;2023-03-15T05:40:04;-21441.09;;;11.15;54.12
7337;BME280;54510;42.016;23.098;2023-03-15T05:42:32;-21444.44;;;11.27;53.62
7337;BME280;54510;42.016;23.098;2023-03-15T05:44:58;-21447.34;;;11.37;52.99
7337;BME280;54510;42.016;23.098;2023-03-15T05:47:23;-21449.28;;;11.44;52.92
7337;BME280;54510;42.016;23.098;2023-03-15T05:49:48;-21451.66;;;11.53;52.24
7337;BME280;54510;42.016;23.098;2023-03-15T05:52:14;-21452.34;;;11.56;52.35
7337;BME280;54510;42.016;23.098;2023-03-15T05:54:39;-21451.38;;;11.52;52.02
7337;BME280;54510;42.016;23.098;2023-03-15T05:57:04;-21445.41;;;11.30;52.72
7337;BME280;54510;42.016;23.098;2023-03-15T05:59:30;-21446.50;;;11.34;52.39
7337;BME280;54510;42.016;23.098;2023-03-15T06:01:55;-21449.84;;;11.46;52.52
7337;BME280;54510;42.016;23.098;2023-03-15T06:04:21;-21456.22;;;11.70;51.83
7337;BME280;54510;42.016;23.098;2023-03-15T06:06:46;-21450.66;;;11.49;51.70
7337;BME280;54510;42.016;23.098;2023-03-15T06:09:12;-21455.25;;;11.66;49.83
7337;BME280;54510;42.016;23.098;2023-03-15T06:11:37;-21463.97;;;11.98;48.40
7337;BME280;54510;42.016;23.098;2023-03-15T06:14:02;-21468.28;;;12.14;47.39
7337;BME280;54510;42.016;23.098;2023-03-15T06:16:28;-21465.09;;;12.02;46.03
7337;BME280;54510;42.016;23.098;2023-03-15T06:18:53;-21470.09;;;12.20;45.67
7337;BME280;54510;42.016;23.098;2023-03-15T06:21:18;-21464.25;;;11.99;45.79
7337;BME280;54510;42.016;23.098;2023-03-15T06:23:44;-21466.19;;;12.06;44.41
7337;BME280;54510;42.016;23.098;2023-03-15T06:26:09;-21461.75;;;11.90;44.42
7337;BME280;54510;42.016;23.098;2023-03-15T06:28:34;-21470.50;;;12.22;43.22
7337;BME280;54510;42.016;23.098;2023-03-15T06:31:06;-21468.97;;;12.16;44.81
7337;BME280;54510;42.016;23.098;2023-03-15T06:33:32;-21474.94;;;12.38;46.40
7337;BME280;54510;42.016;23.098;2023-03-15T06:35:57;-21478.13;;;12.50;46.54
7337;BME280;54510;42.016;23.098;2023-03-15T06:38:22;-21485.31;;;12.76;46.33
7337;BME280;54510;42.016;23.098;2023-03-15T06:40:48;-21483.66;;;12.70;46.31
7337;BME280;54510;42.016;23.098;2023-03-15T06:43:13;-21475.34;;;12.40;46.89
7337;BME280;54510;42.016;23.098;2023-03-15T06:45:43;-21473.81;;;12.34;47.37
7337;BME280;54510;42.016;23.098;2023-03-15T06:48:09;-21473.81;;;12.34;47.49
7337;BME280;54510;42.016;23.098;2023-03-15T06:50:34;-21478.38;;;12.51;47.45
7337;BME280;54510;42.016;23.098;2023-03-15T06:52:59;-21481.44;;;12.62;46.83
7337;BME280;54510;42.016;23.098;2023-03-15T06:55:26;-21483.66;;;12.70;46.81
7337;BME280;54510;42.016;23.098;2023-03-15T06:57:51;-21484.47;;;12.73;46.65
7337;BME280;54510;42.016;23.098;2023-03-15T07:00:16;-21488.09;;;12.86;46.58
7337;BME280;54510;42.016;23.098;2023-03-15T07:02:42;-21486.56;;;12.81;46.37
7337;BME280;54510;42.016;23.098;2023-03-15T07:05:07;-21487.13;;;12.83;45.61
7337;BME280;54510;42.016;23.098;2023-03-15T07:07:32;-21488.50;;;12.88;45.21
7337;BME280;54510;42.016;23.098;2023-03-15T07:09:58;-21490.84;;;12.96;45.25
7337;BME280;54510;42.016;23.098;2023-03-15T07:12:23;-21493.63;;;13.06;44.67
7337;BME280;54510;42.016;23.098;2023-03-15T07:14:49;-21497.22;;;13.20;44.43
7337;BME280;54510;42.016;23.098;2023-03-15T07:17:14;-21502.63;;;13.39;43.31
7337;BME280;54510;42.016;23.098;2023-03-15T07:19:39;-21500.81;;;13.33;43.27
7337;BME280;54510;42.016;23.098;2023-03-15T07:22:04;-21492.66;;;13.03;42.57
7337;BME280;54510;42.016;23.098;2023-03-15T07:24:30;-21498.19;;;13.23;40.79
7337;BME280;54510;42.016;23.098;2023-03-15T07:26:55;-21499.28;;;13.27;40.96
7337;BME280;54510;42.016;23.098;2023-03-15T07:29:21;-21496.25;;;13.16;40.12
7337;BME280;54510;42.016;23.098;2023-03-15T07:31:47;-21489.31;;;12.91;39.37
7337;BME280;54510;42.016;23.098;2023-03-15T07:34:12;-21498.47;;;13.24;38.65
7337;BME280;54510;42.016;23.098;2023-03-15T07:36:38;-21509.94;;;13.66;38.09
7337;BME280;54510;42.016;23.098;2023-03-15T07:39:03;-21514.66;;;13.83;36.79
7337;BME280;54510;42.016;23.098;2023-03-15T07:41:29;-21509.94;;;13.66;36.79
7337;BME280;54510;42.016;23.098;2023-03-15T07:43:55;-21505.25;;;13.49;36.31
7337;BME280;54510;42.016;23.098;2023-03-15T07:46:20;-21502.91;;;13.40;35.41
7337;BME280;54510;42.016;23.098;2023-03-15T07:48:45;-21512.44;;;13.75;35.17
7337;BME280;54510;42.016;23.098;2023-03-15T07:51:11;-21504.41;;;13.46;35.78
7337;BME280;54510;42.016;23.098;2023-03-15T07:53:36;-21500.81;;;13.33;36.14
7337;BME280;54510;42.016;23.098;2023-03-15T07:56:01;-21512.44;;;13.75;35.31
7337;BME280;54510;42.016;23.098;2023-03-15T07:58:27;-21505.53;;;13.50;36.26
7337;BME280;54510;42.016;23.098;2023-03-15T08:00:55;-21515.47;;;13.87;35.36
7337;BME280;54510;42.016;23.098;2023-03-15T08:03:21;-21514.38;;;13.82;35.39
7337;BME280;54510;42.016;23.098;2023-03-15T08:05:48;-21513.41;;;13.79;35.19
7337;BME280;54510;42.016;23.098;2023-03-15T08:08:13;-21512.56;;;13.76;34.32
7337;BME280;54510;42.016;23.098;2023-03-15T08:10:38;-21513.25;;;13.78;34.48
7337;BME280;54510;42.016;23.098;2023-03-15T08:13:03;-21514.66;;;13.83;34.63
7337;BME280;54510;42.016;23.098;2023-03-15T08:15:29;-21515.75;;;13.88;34.40
7337;BME280;54510;42.016;23.098;2023-03-15T08:17:54;-21526.69;;;14.28;34.17
7337;BME280;54510;42.016;23.098;2023-03-15T08:20:19;-21527.66;;;14.31;34.33
7337;BME280;54510;42.016;23.098;2023-03-15T08:22:48;-21509.66;;;13.65;35.63
7337;BME280;54510;42.016;23.098;2023-03-15T08:25:14;-21513.25;;;13.78;35.42
7337;BME280;54510;42.016;23.098;2023-03-15T08:27:40;-21514.09;;;13.81;35.35
7337;BME280;54510;42.016;23.098;2023-03-15T08:30:09;-21521.00;;;14.07;35.48
7337;BME280;54510;42.016;23.098;2023-03-15T08:32:36;-21515.19;;;13.85;35.80
7337;BME280;54510;42.016;23.098;2023-03-15T08:35:01;-21520.03;;;14.03;35.86
7337;BME280;54510;42.016;23.098;2023-03-15T08:37:27;-21524.47;;;14.19;35.50
7337;BME280;54510;42.016;23.098;2023-03-15T08:39:52;-21510.09;;;13.67;36.20
7337;BME280;54510;42.016;23.098;2023-03-15T08:42:24;-21519.06;;;14.00;36.10
7337;BME280;54510;42.016;23.098;2023-03-15T08:44:50;-21524.31;;;14.19;35.66
7337;BME280;54510;42.016;23.098;2023-03-15T08:47:15;-21509.25;;;13.64;36.19
7337;BME280;54510;42.016;23.098;2023-03-15T08:49:40;-21514.38;;;13.82;36.28
7337;BME280;54510;42.016;23.098;2023-03-15T08:52:06;-21517.00;;;13.92;35.84
7337;BME280;54510;42.016;23.098;2023-03-15T08:54:31;-21515.34;;;13.86;36.23
7337;BME280;54510;42.016;23.098;2023-03-15T08:56:56;-21515.34;;;13.86;36.82
7337;BME280;54510;42.016;23.098;2023-03-15T08:59:22;-21522.66;;;14.13;36.82
7337;BME280;54510;42.016;23.098;2023-03-15T09:01:47;-21530.41;;;14.41;36.52
7337;BME280;54510;42.016;23.098;2023-03-15T09:04:12;-21528.19;;;14.33;37.22
7337;BME280;54510;42.016;23.098;2023-03-15T09:06:37;-21526.81;;;14.28;37.27
7337;BME280;54510;42.016;23.098;2023-03-15T09:09:03;-21528.19;;;14.33;36.98
7337;BME280;54510;42.016;23.098;2023-03-15T09:11:28;-21526.13;;;14.26;37.63
7337;BME280;54510;42.016;23.098;2023-03-15T09:13:53;-21523.91;;;14.17;38.10
7337;BME280;54510;42.016;23.098;2023-03-15T09:16:19;-21521.97;;;14.10;38.40
7337;BME280;54510;42.016;23.098;2023-03-15T09:18:44;-21525.44;;;14.23;38.15
7337;BME280;54510;42.016;23.098;2023-03-15T09:21:09;-21522.66;;;14.13;38.46
7337;BME280;54510;42.016;23.098;2023-03-15T09:23:35;-21525.56;;;14.23;38.75
7337;BME280;54510;42.016;23.098;2023-03-15T09:26:00;-21531.09;;;14.44;38.41
7337;BME280;54510;42.016;23.098;2023-03-15T09:28:25;-21530.41;;;14.41;38.33
7337;BME280;54510;42.016;23.098;2023-03-15T09:30:51;-21519.91;;;14.03;35.54
7337;BME280;54510;42.016;23.098;2023-03-15T09:33:16;-21520.19;;;14.04;34.75
7337;BME280;54510;42.016;23.098;2023-03-15T09:35:41;-21532.63;;;14.49;34.24
7337;BME280;54510;42.016;23.098;2023-03-15T09:38:07;-21530.13;;;14.40;34.12
7337;BME280;54510;42.016;23.098;2023-03-15T09:40:33;-21526.81;;;14.28;33.75
7337;BME280;54510;42.016;23.098;2023-03-15T09:48:03;-21532.06;;;14.47;34.55
7337;BME280;54510;42.016;23.098;2023-03-15T09:50:33;-21523.50;;;14.16;35.22
7337;BME280;54510;42.016;23.098;2023-03-15T09:53:02;-21531.38;;;14.45;35.08
7337;BME280;54510;42.016;23.098;2023-03-15T09:55:29;-21537.88;;;14.69;34.58
7337;BME280;54510;42.016;23.098;2023-03-15T10:00:20;-21545.31;;;14.96;34.57
7337;BME280;54510;42.016;23.098;2023-03-15T10:02:49;-21536.63;;;14.64;34.42
7337;BME280;54510;42.016;23.098;2023-03-15T10:05:18;-21536.22;;;14.62;33.86
7337;BME280;54510;42.016;23.098;2023-03-15T10:07:45;-21536.22;;;14.62;33.79
7337;BME280;54510;42.016;23.098;2023-03-15T10:10:17;-21525.56;;;14.23;33.99
7337;BME280;54510;42.016;23.098;2023-03-15T10:12:45;-21531.78;;;14.46;34.18
7337;BME280;54510;42.016;23.098;2023-03-15T10:15:24;-21543.13;;;14.88;36.67
7337;BME280;54510;42.016;23.098;2023-03-15T10:20:38;-21543.66;;;14.90;36.40
7337;BME280;54510;42.016;23.098;2023-03-15T10:25:33;-21540.22;;;14.77;36.42
7337;BME280;54510;42.016;23.098;2023-03-15T10:28:02;-21532.47;;;14.49;34.75
7337;BME280;54510;42.016;23.098;2023-03-15T10:30:29;-21527.66;;;14.31;35.52
7337;BME280;54510;42.016;23.098;2023-03-15T10:33:14;-21533.44;;;14.52;35.85
7337;BME280;54510;42.016;23.098;2023-03-15T10:35:40;-21529.16;;;14.37;35.50
7337;BME280;54510;42.016;23.098;2023-03-15T10:38:14;-21515.47;;;13.87;35.68
7337;BME280;54510;42.016;23.098;2023-03-15T10:40:42;-21520.03;;;14.03;35.06
7337;BME280;54510;42.016;23.098;2023-03-15T10:43:23;-21521.00;;;14.07;34.91
7337;BME280;54510;42.016;23.098;2023-03-15T10:48:27;-21526.25;;;14.26;36.16
7337;BME280;54510;42.016;23.098;2023-03-15T10:50:53;-21530.97;;;14.43;36.21
7337;BME280;54510;42.016;23.098;2023-03-15T10:53:19;-21528.47;;;14.34;36.57
7337;BME280;54510;42.016;23.098;2023-03-15T10:55:55;-21522.41;;;14.12;37.35
7337;BME280;54510;42.016;23.098;2023-03-15T10:58:29;-21525.16;;;14.22;37.09
7337;BME280;54510;42.016;23.098;2023-03-15T11:01:04;-21524.47;;;14.19;37.08
7337;BME280;54510;42.016;23.098;2023-03-15T11:03:33;-21520.03;;;14.03;37.04
7337;BME280;54510;42.016;23.098;2023-03-15T11:05:59;-21516.31;;;13.90;37.71
7337;BME280;54510;42.016;23.098;2023-03-15T11:08:34;-21513.00;;;13.77;37.43
7337;BME280;54510;42.016;23.098;2023-03-15T11:11:01;-21504.28;;;13.45;37.02
7337;BME280;54510;42.016;23.098;2023-03-15T11:13:27;-21514.22;;;13.82;37.41
7337;BME280;54510;42.016;23.098;2023-03-15T11:18:44;-21524.88;;;14.21;36.92
7337;BME280;54510;42.016;23.098;2023-03-15T11:21:14;-21527.50;;;14.31;37.02
7337;BME280;54510;42.016;23.098;2023-03-15T11:23:43;-21531.53;;;14.45;36.89
7337;BME280;54510;42.016;23.098;2023-03-15T11:26:19;-21528.19;;;14.33;36.27
7337;BME280;54510;42.016;23.098;2023-03-15T11:28:48;-21529.84;;;14.39;36.27
7337;BME280;54510;42.016;23.098;2023-03-15T11:31:14;-21518.81;;;13.99;36.44
7337;BME280;54510;42.016;23.098;2023-03-15T11:36:25;-21521.00;;;14.07;37.05
7337;BME280;54510;42.016;23.098;2023-03-15T11:38:52;-21510.91;;;13.70;36.49
7337;BME280;54510;42.016;23.098;2023-03-15T11:41:26;-21509.66;;;13.65;36.60
7337;BME280;54510;42.016;23.098;2023-03-15T11:43:55;-21513.00;;;13.77;36.83
7337;BME280;54510;42.016;23.098;2023-03-15T11:46:38;-21513.69;;;13.80;36.20
7337;BME280;54510;42.016;23.098;2023-03-15T11:51:39;-21516.16;;;13.89;36.09
7337;BME280;54510;42.016;23.098;2023-03-15T11:54:24;-21513.00;;;13.77;37.09
7337;BME280;54510;42.016;23.098;2023-03-15T11:56:56;-21506.06;;;13.52;35.80
7337;BME280;54510;42.016;23.098;2023-03-15T11:59:32;-21508.56;;;13.61;32.74
7337;BME280;54510;42.016;23.098;2023-03-15T12:07:01;-21514.66;;;13.83;34.21
7337;BME280;54510;42.016;23.098;2023-03-15T12:12:02;-21510.38;;;13.68;34.35
7337;BME280;54510;42.016;23.098;2023-03-15T12:14:29;-21509.94;;;13.66;35.26
7337;BME280;54510;42.016;23.098;2023-03-15T12:19:39;-21507.31;;;13.57;35.02
7337;BME280;54510;42.016;23.098;2023-03-15T12:22:10;-21508.84;;;13.62;34.89
7337;BME280;54510;42.016;23.098;2023-03-15T12:24:38;-21505.53;;;13.50;35.27
7337;BME280;54510;42.016;23.098;2023-03-15T12:29:39;-21505.78;;;13.51;34.98
7337;BME280;54510;42.016;23.098;2023-03-15T12:32:07;-21496.13;;;13.16;37.21
7337;BME280;54510;42.016;23.098;2023-03-15T12:37:21;-21503.44;;;13.42;38.14
7337;BME280;54510;42.016;23.098;2023-03-15T12:53:13;-21500.00;;;13.30;39.46
7337;BME280;54510;42.016;23.098;2023-03-15T12:55:39;-21502.75;;;13.40;40.63
7337;BME280;54510;42.016;23.098;2023-03-15T12:58:05;-21494.19;;;13.09;41.36
7337;BME280;54510;42.016;23.098;2023-03-15T13:00:34;-21497.34;;;13.20;43.20
7337;BME280;54510;42.016;23.098;2023-03-15T13:03:06;-21501.66;;;13.36;43.77
7337;BME280;54510;42.016;23.098;2023-03-15T13:05:43;-21496.13;;;13.16;45.00
7337;BME280;54510;42.016;23.098;2023-03-15T13:08:18;-21489.19;;;12.90;44.89
7337;BME280;54510;42.016;23.098;2023-03-15T13:13:20;-21504.69;;;13.47;45.20
7337;BME280;54510;42.016;23.098;2023-03-15T13:21:58;-21512.16;;;13.74;46.04
7337;BME280;54510;42.016;23.098;2023-03-15T13:32:46;-21500.25;;;13.31;46.80
7337;BME280;54510;42.016;23.098;2023-03-15T13:35:12;-21513.41;;;13.79;46.90
7337;BME280;54510;42.016;23.098;2023-03-15T13:37:38;-21508.00;;;13.59;47.63
7337;BME280;54510;42.016;23.098;2023-03-15T13:40:12;-21505.38;;;13.50;48.20
7337;BME280;54510;42.016;23.098;2023-03-15T13:42:39;-21508.28;;;13.60;48.02
7337;BME280;54510;42.016;23.098;2023-03-15T13:47:30;-21513.00;;;13.77;48.07
7337;BME280;54510;42.016;23.098;2023-03-15T13:49:56;-21507.19;;;13.56;46.50
7337;BME280;54510;42.016;23.098;2023-03-15T13:52:21;-21518.66;;;13.98;45.48
7337;BME280;54510;42.016;23.098;2023-03-15T13:54:47;-21532.06;;;14.47;44.62
7337;BME280;54510;42.016;23.098;2023-03-15T13:57:15;-21520.88;;;14.06;45.38
7337;BME280;54510;42.016;23.098;2023-03-15T14:02:22;-21530.53;;;14.42;46.45
7337;BME280;54510;42.016;23.098;2023-03-15T14:04:56;-21530.97;;;14.43;45.48
7337;BME280;54510;42.016;23.098;2023-03-15T14:07:35;-21521.16;;;14.07;45.92
7337;BME280;54510;42.016;23.098;2023-03-15T14:10:08;-21516.16;;;13.89;46.07